createdAt,value
2023-05-19T00:00:14.951Z,81.95
2023-05-19T00:01:15.858Z,82.15
2023-05-19T00:02:14.931Z,82.46
2023-05-19T00:03:15.380Z,83.39
2023-05-19T00:04:15.013Z,82.42
2023-05-19T00:05:14.830Z,82.22
2023-05-19T00:06:15.783Z,81.50
2023-05-19T00:07:15.196Z,81.20
2023-05-19T00:08:14.744Z,81.20
2023-05-19T00:09:15.289Z,81.60
2023-05-19T00:10:14.985Z,81.71
2023-05-19T00:11:16.213Z,82.01
2023-05-19T00:12:15.329Z,82.42
2023-05-19T00:13:14.889Z,82.32
2023-05-19T00:14:14.882Z,82.01
2023-05-19T00:15:14.830Z,82.12
2023-05-19T00:16:15.169Z,82.12
2023-05-19T00:17:14.998Z,82.12
2023-05-19T00:18:14.856Z,82.77
2023-05-19T00:19:14.693Z,82.77
2023-05-19T00:20:14.730Z,82.77
2023-05-19T00:21:15.107Z,82.87
2023-05-19T00:22:14.431Z,82.46
2023-05-19T00:23:14.787Z,82.36
2023-05-19T00:24:14.414Z,82.26
2023-05-19T00:25:15.415Z,82.15
2023-05-19T00:26:15.011Z,82.56
2023-05-19T00:27:15.211Z,82.87
2023-05-19T00:28:14.583Z,82.87
2023-05-19T00:29:14.704Z,82.70
2023-05-19T00:30:14.870Z,82.09
2023-05-19T00:31:14.632Z,82.09
2023-05-19T00:32:14.728Z,82.81
2023-05-19T00:33:14.462Z,83.42
2023-05-19T00:34:14.549Z,83.32
2023-05-19T00:35:15.037Z,83.53
2023-05-19T00:36:14.676Z,85.06
2023-05-19T00:37:14.588Z,83.63
2023-05-19T00:38:24.774Z,83.12
2023-05-19T00:39:14.864Z,83.15
2023-05-19T00:40:14.839Z,83.26
2023-05-19T00:41:24.155Z,83.46
2023-05-19T00:42:14.520Z,84.08
2023-05-19T00:43:16.099Z,84.39
2023-05-19T00:44:14.662Z,85.11
2023-05-19T00:45:14.366Z,86.13
2023-05-19T00:46:14.490Z,85.00
2023-05-19T00:47:14.242Z,84.28
2023-05-19T00:48:14.451Z,84.59
2023-05-19T00:49:14.630Z,85.41
2023-05-19T00:50:18.033Z,84.96
2023-05-19T00:51:14.404Z,84.08
2023-05-19T00:52:14.373Z,83.87
2023-05-19T00:53:14.681Z,84.18
2023-05-19T00:54:14.442Z,84.49
2023-05-19T00:55:14.171Z,85.11
2023-05-19T00:56:13.206Z,84.59
2023-05-19T00:57:13.194Z,84.08
2023-05-19T00:58:13.201Z,84.28
2023-05-19T00:59:13.185Z,84.49
2023-05-19T01:00:13.171Z,85.11
2023-05-19T01:01:13.198Z,85.31
2023-05-19T01:02:13.189Z,85.55
2023-05-19T01:03:13.394Z,85.55
2023-05-19T01:04:13.111Z,85.55
2023-05-19T01:05:13.125Z,85.25
2023-05-19T01:06:13.103Z,85.55
2023-05-19T01:07:13.084Z,85.86
2023-05-19T01:08:13.087Z,85.66
2023-05-19T01:09:13.044Z,85.55
2023-05-19T01:10:13.102Z,85.66
2023-05-19T01:11:13.281Z,85.86
2023-05-19T01:12:13.076Z,86.38
2023-05-19T01:13:13.013Z,86.58
2023-05-19T01:14:12.988Z,86.68
2023-05-19T01:15:12.964Z,86.93
2023-05-19T01:16:13.128Z,87.34
2023-05-19T01:17:12.952Z,87.34
2023-05-19T01:18:12.990Z,87.45
2023-05-19T01:19:12.975Z,87.34
2023-05-19T01:20:12.939Z,87.45
2023-05-19T01:21:12.930Z,87.34
2023-05-19T01:22:12.940Z,87.65
2023-05-19T01:23:12.898Z,87.65
2023-05-19T01:24:12.894Z,87.79
2023-05-19T01:25:12.851Z,87.69
2023-05-19T01:26:12.859Z,87.79
2023-05-19T01:27:12.838Z,87.90
2023-05-19T01:28:12.828Z,87.90
2023-05-19T01:29:12.821Z,87.79
2023-05-19T01:30:12.808Z,87.79
2023-05-19T01:31:12.814Z,88.00
2023-05-19T01:32:12.835Z,88.41
2023-05-19T01:33:12.784Z,88.10
2023-05-19T01:34:12.750Z,87.79
2023-05-19T01:35:12.755Z,87.84
2023-05-19T01:36:12.732Z,88.14
2023-05-19T01:37:12.711Z,88.45
2023-05-19T01:38:12.758Z,88.76
2023-05-19T01:39:12.706Z,88.76
2023-05-19T01:40:15.412Z,88.96
2023-05-19T01:41:12.686Z,89.28
2023-05-19T01:42:12.706Z,89.48
2023-05-19T01:43:12.692Z,89.69
2023-05-19T01:44:12.696Z,89.69
2023-05-19T01:45:12.636Z,89.79
2023-05-19T01:46:12.632Z,89.89
2023-05-19T01:47:12.623Z,90.00
2023-05-19T01:48:12.603Z,90.14
2023-05-19T01:49:12.662Z,90.34
2023-05-19T01:50:12.559Z,90.66
2023-05-19T01:51:12.565Z,90.86
2023-05-19T01:52:12.553Z,91.17
2023-05-19T01:53:12.572Z,91.17
2023-05-19T01:54:12.581Z,91.17
2023-05-19T01:55:12.508Z,91.47
2023-05-19T01:56:12.501Z,91.38
2023-05-19T01:57:12.495Z,91.47
2023-05-19T01:58:12.520Z,91.47
2023-05-19T01:59:12.512Z,91.58
2023-05-19T02:00:12.453Z,91.47
2023-05-19T02:01:12.517Z,91.58
2023-05-19T02:02:12.446Z,91.52
2023-05-19T02:03:12.454Z,91.72
2023-05-19T02:04:12.500Z,91.52
2023-05-19T02:05:12.412Z,91.52
2023-05-19T02:06:12.402Z,91.42
2023-05-19T02:07:12.389Z,91.52
2023-05-19T02:08:12.380Z,91.62
2023-05-19T02:09:12.365Z,91.62
2023-05-19T02:10:12.350Z,91.52
2023-05-19T02:11:12.348Z,91.42
2023-05-19T02:12:12.335Z,91.52
2023-05-19T02:13:12.304Z,91.42
2023-05-19T02:14:12.296Z,91.62
2023-05-19T02:15:12.308Z,91.42
2023-05-19T02:16:12.329Z,91.52
2023-05-19T02:17:12.283Z,91.77
2023-05-19T02:18:12.285Z,91.87
2023-05-19T02:19:12.249Z,91.87
2023-05-19T02:20:12.223Z,91.97
2023-05-19T02:21:12.249Z,91.87
2023-05-19T02:22:12.221Z,91.87
2023-05-19T02:23:12.203Z,91.97
2023-05-19T02:24:12.201Z,92.08
2023-05-19T02:25:12.167Z,92.18
2023-05-19T02:26:12.165Z,92.18
2023-05-19T02:27:12.148Z,92.29
2023-05-19T02:28:12.392Z,92.29
2023-05-19T02:29:12.140Z,92.38
2023-05-19T02:30:12.114Z,92.22
2023-05-19T02:31:12.103Z,92.33
2023-05-19T02:32:12.118Z,92.33
2023-05-19T02:33:12.120Z,92.43
2023-05-19T02:34:12.073Z,92.43
2023-05-19T02:35:12.055Z,92.43
2023-05-19T02:36:12.033Z,92.53
2023-05-19T02:37:12.425Z,92.63
2023-05-19T02:38:12.019Z,92.63
2023-05-19T02:39:12.043Z,92.53
2023-05-19T02:40:12.018Z,92.74
2023-05-19T02:41:11.976Z,92.63
2023-05-19T02:42:12.005Z,92.63
2023-05-19T02:43:11.985Z,92.74
2023-05-19T02:44:11.949Z,92.94
2023-05-19T02:45:12.056Z,92.94
2023-05-19T02:46:11.951Z,92.94
2023-05-19T02:47:12.007Z,93.05
2023-05-19T02:48:11.983Z,93.15
2023-05-19T02:49:11.908Z,93.19
2023-05-19T02:50:11.907Z,93.40
2023-05-19T02:51:11.878Z,93.40
2023-05-19T02:52:11.861Z,93.50
2023-05-19T02:53:11.851Z,93.60
2023-05-19T02:54:11.960Z,94.23
2023-05-19T02:55:11.833Z,94.23
2023-05-19T02:56:11.827Z,94.12
2023-05-19T02:57:11.790Z,94.12
2023-05-19T02:58:11.808Z,94.23
2023-05-19T02:59:11.800Z,94.23
2023-05-19T03:00:11.776Z,94.23
2023-05-19T03:01:11.765Z,94.17
2023-05-19T03:02:11.914Z,94.37
2023-05-19T03:03:11.816Z,94.37
2023-05-19T03:04:11.747Z,94.47
2023-05-19T03:05:11.724Z,94.57
2023-05-19T03:06:14.504Z,94.57
2023-05-19T03:07:11.671Z,94.68
2023-05-19T03:08:11.691Z,94.68
2023-05-19T03:09:11.682Z,94.57
2023-05-19T03:10:11.663Z,94.68
2023-05-19T03:11:11.655Z,94.68
2023-05-19T03:12:11.643Z,94.72
2023-05-19T03:13:11.646Z,94.78
2023-05-19T03:14:11.666Z,94.89
2023-05-19T03:15:11.604Z,94.68
2023-05-19T03:16:11.655Z,94.82
2023-05-19T03:17:11.633Z,94.89
2023-05-19T03:18:11.628Z,94.78
2023-05-19T03:19:11.642Z,94.93
2023-05-19T03:20:11.544Z,94.93
2023-05-19T03:21:11.551Z,94.82
2023-05-19T03:22:11.528Z,94.82
2023-05-19T03:23:11.547Z,95.03
2023-05-19T03:24:11.496Z,95.14
2023-05-19T03:25:11.504Z,95.03
2023-05-19T03:26:11.520Z,94.93
2023-05-19T03:27:11.480Z,95.03
2023-05-19T03:28:11.451Z,95.03
2023-05-19T03:29:11.496Z,95.24
2023-05-19T03:30:11.456Z,95.14
2023-05-19T03:31:11.450Z,95.14
2023-05-19T03:32:11.445Z,95.24
2023-05-19T03:33:11.542Z,95.24
2023-05-19T03:34:11.379Z,95.14
2023-05-19T03:35:11.391Z,95.14
2023-05-19T03:36:11.384Z,95.18
2023-05-19T03:37:11.700Z,95.39
2023-05-19T03:38:11.352Z,95.49
2023-05-19T03:39:11.334Z,95.65
2023-05-19T03:40:11.346Z,95.55
2023-05-19T03:41:11.297Z,95.65
2023-05-19T03:42:11.314Z,95.65
2023-05-19T03:43:11.310Z,95.55
2023-05-19T03:44:11.284Z,95.55
2023-05-19T03:45:11.275Z,95.65
2023-05-19T03:46:11.279Z,95.65
2023-05-19T03:47:11.272Z,95.86
2023-05-19T03:48:11.242Z,95.65
2023-05-19T03:49:11.227Z,95.90
2023-05-19T03:50:11.237Z,96.01
2023-05-19T03:51:11.552Z,95.90
2023-05-19T03:52:11.200Z,95.86
2023-05-19T03:53:11.159Z,95.86
2023-05-19T03:54:11.160Z,95.76
2023-05-19T03:55:11.179Z,95.55
2023-05-19T03:56:11.145Z,95.45
2023-05-19T03:57:11.185Z,95.34
2023-05-19T03:58:11.142Z,95.28
2023-05-19T03:59:11.133Z,95.70
2023-05-19T04:00:11.242Z,95.70
2023-05-19T04:01:11.070Z,95.70
2023-05-19T04:02:11.169Z,95.70
2023-05-19T04:03:11.247Z,95.90
2023-05-19T04:04:11.079Z,95.80
2023-05-19T04:05:11.354Z,95.86
2023-05-19T04:06:11.046Z,95.70
2023-05-19T04:07:11.021Z,95.70
2023-05-19T04:08:11.051Z,95.80
2023-05-19T04:09:11.321Z,95.80
2023-05-19T04:10:11.313Z,95.80
2023-05-19T04:11:11.012Z,95.90
2023-05-19T04:12:10.959Z,95.90
2023-05-19T04:13:11.028Z,96.01
2023-05-19T04:14:10.937Z,96.01
2023-05-19T04:15:10.924Z,96.01
2023-05-19T04:16:11.240Z,95.96
2023-05-19T04:17:10.889Z,95.86
2023-05-19T04:18:10.926Z,95.76
2023-05-19T04:19:18.031Z,95.86
2023-05-19T04:20:18.204Z,95.96
2023-05-19T04:21:17.860Z,95.76
2023-05-19T04:22:10.840Z,95.96
2023-05-19T04:23:18.154Z,95.86
2023-05-19T04:24:11.101Z,95.86
2023-05-19T04:25:10.817Z,95.86
2023-05-19T04:26:10.812Z,95.86
2023-05-19T04:27:10.794Z,95.65
2023-05-19T04:28:10.787Z,95.45
2023-05-19T04:29:10.780Z,95.40
2023-05-19T04:30:10.758Z,95.30
2023-05-19T04:31:10.849Z,95.20
2023-05-19T04:32:10.753Z,95.20
2023-05-19T04:33:10.744Z,95.20
2023-05-19T04:34:10.696Z,95.30
2023-05-19T04:35:10.692Z,95.09
2023-05-19T04:36:10.788Z,94.78
2023-05-19T04:37:10.980Z,94.89
2023-05-19T04:38:11.187Z,94.74
2023-05-19T04:39:10.658Z,94.53
2023-05-19T04:40:10.652Z,94.53
2023-05-19T04:41:10.713Z,94.64
2023-05-19T04:42:10.616Z,94.53
2023-05-19T04:43:10.599Z,94.32
2023-05-19T04:44:10.579Z,94.32
2023-05-19T04:45:10.578Z,94.28
2023-05-19T04:46:13.169Z,94.18
2023-05-19T04:47:10.884Z,93.98
2023-05-19T04:48:10.560Z,93.87
2023-05-19T04:49:10.579Z,93.66
2023-05-19T04:50:10.578Z,93.66
2023-05-19T04:51:10.587Z,93.56
2023-05-19T04:52:10.823Z,93.52
2023-05-19T04:53:12.396Z,93.52
2023-05-19T04:54:10.495Z,93.62
2023-05-19T04:55:10.505Z,93.41
2023-05-19T04:56:10.441Z,93.41
2023-05-19T04:57:10.494Z,93.41
2023-05-19T04:58:10.421Z,93.31
2023-05-19T04:59:10.415Z,93.11
2023-05-19T05:00:10.782Z,92.80
2023-05-19T05:01:10.404Z,92.80
2023-05-19T05:02:10.581Z,92.76
2023-05-19T05:03:10.481Z,92.34
2023-05-19T05:04:10.492Z,92.24
2023-05-19T05:05:10.371Z,92.24
2023-05-19T05:06:10.390Z,92.24
2023-05-19T05:07:10.341Z,92.34
2023-05-19T05:08:10.344Z,92.24
2023-05-19T05:09:10.333Z,92.30
2023-05-19T05:10:10.673Z,92.20
2023-05-19T05:11:10.287Z,92.30
2023-05-19T05:12:10.284Z,92.30
2023-05-19T05:13:11.802Z,92.30
2023-05-19T05:14:10.263Z,92.20
2023-05-19T05:15:10.240Z,92.10
2023-05-19T05:16:10.260Z,92.10
2023-05-19T05:17:10.552Z,92.05
2023-05-19T05:18:10.320Z,91.95
2023-05-19T05:19:10.229Z,91.95
2023-05-19T05:20:10.175Z,91.85
2023-05-19T05:21:10.180Z,91.74
2023-05-19T05:22:10.183Z,91.53
2023-05-19T05:23:10.156Z,91.44
2023-05-19T05:24:10.136Z,91.44
2023-05-19T05:25:10.162Z,91.39
2023-05-19T05:26:10.132Z,91.39
2023-05-19T05:27:10.258Z,91.29
2023-05-19T05:28:10.104Z,90.98
2023-05-19T05:29:10.101Z,90.88
2023-05-19T05:30:10.080Z,90.57
2023-05-19T05:31:12.226Z,90.47
2023-05-19T05:32:13.102Z,90.12
2023-05-19T05:33:10.541Z,89.70
2023-05-19T05:34:10.941Z,89.50
2023-05-19T05:35:10.047Z,88.98
2023-05-19T05:36:10.039Z,88.78
2023-05-19T05:37:10.132Z,88.68
2023-05-19T05:38:10.309Z,88.37
2023-05-19T05:39:09.960Z,88.23
2023-05-19T05:40:12.092Z,88.12
2023-05-19T05:41:10.880Z,88.02
2023-05-19T05:42:09.950Z,88.02
2023-05-19T05:43:10.235Z,87.92
2023-05-19T05:44:09.912Z,87.71
2023-05-19T05:45:09.882Z,87.82
2023-05-19T05:46:09.969Z,87.88
2023-05-19T05:47:09.874Z,88.18
2023-05-19T05:48:09.904Z,87.77
2023-05-19T05:49:09.867Z,86.95
2023-05-19T05:50:10.120Z,86.75
2023-05-19T05:51:09.853Z,86.75
2023-05-19T05:52:09.874Z,86.13
2023-05-19T05:53:10.111Z,86.24
2023-05-19T05:54:09.830Z,86.54
2023-05-19T05:55:09.820Z,86.44
2023-05-19T05:56:09.760Z,86.30
2023-05-19T05:57:09.786Z,86.19
2023-05-19T05:58:09.763Z,86.09
2023-05-19T05:59:09.852Z,86.09
2023-05-19T06:00:09.742Z,86.19
2023-05-19T06:01:09.718Z,85.95
2023-05-19T06:02:09.778Z,85.13
2023-05-19T06:03:10.035Z,84.92
2023-05-19T06:04:09.678Z,85.13
2023-05-19T06:05:09.749Z,85.23
2023-05-19T06:06:09.672Z,85.03
2023-05-19T06:07:09.671Z,85.13
2023-05-19T06:08:10.826Z,84.61
2023-05-19T06:09:09.627Z,84.37
2023-05-19T06:10:09.654Z,84.27
2023-05-19T06:11:09.592Z,84.27
2023-05-19T06:12:16.951Z,84.27
2023-05-19T06:13:16.923Z,84.27
2023-05-19T06:14:09.561Z,83.82
2023-05-19T06:15:16.870Z,84.03
2023-05-19T06:16:09.616Z,83.92
2023-05-19T06:17:09.520Z,83.72
2023-05-19T06:18:09.742Z,83.41
2023-05-19T06:19:09.555Z,83.41
2023-05-19T06:20:09.518Z,84.09
2023-05-19T06:21:09.469Z,84.60
2023-05-19T06:22:09.746Z,84.60
2023-05-19T06:23:09.465Z,82.45
2023-05-19T06:24:09.455Z,81.84
2023-05-19T06:25:09.444Z,83.06
2023-05-19T06:26:09.440Z,82.82
2023-05-19T06:27:09.406Z,82.82
2023-05-19T06:28:09.427Z,82.21
2023-05-19T06:29:09.373Z,81.90
2023-05-19T06:30:09.427Z,81.38
2023-05-19T06:31:09.402Z,81.35
2023-05-19T06:32:09.345Z,80.63
2023-05-19T06:33:09.745Z,79.82
2023-05-19T06:34:09.319Z,79.50
2023-05-19T06:35:09.322Z,79.30
2023-05-19T06:36:09.713Z,79.30
2023-05-19T06:37:09.315Z,79.06
2023-05-19T06:38:09.284Z,79.16
2023-05-19T06:39:09.252Z,78.55
2023-05-19T06:40:09.252Z,78.45
2023-05-19T06:41:09.239Z,78.75
2023-05-19T06:42:09.264Z,78.45
2023-05-19T06:43:09.224Z,78.20
2023-05-19T06:44:09.212Z,77.29
2023-05-19T06:45:09.263Z,77.39
2023-05-19T06:46:09.189Z,78.00
2023-05-19T06:47:09.229Z,78.20
2023-05-19T06:48:09.216Z,77.39
2023-05-19T06:49:09.162Z,77.25
2023-05-19T06:50:09.139Z,77.25
2023-05-19T06:51:09.124Z,77.25
2023-05-19T06:52:09.126Z,76.84
2023-05-19T06:53:09.134Z,76.74
2023-05-19T06:54:09.118Z,76.23
2023-05-19T06:55:11.816Z,76.23
2023-05-19T06:56:09.087Z,76.60
2023-05-19T06:57:09.046Z,76.40
2023-05-19T06:58:09.058Z,76.40
2023-05-19T06:59:09.036Z,76.40
2023-05-19T07:00:09.035Z,76.19
2023-05-19T07:01:09.059Z,76.50
2023-05-19T07:02:09.377Z,77.08
2023-05-19T07:03:11.841Z,76.26
2023-05-19T07:04:09.097Z,75.54
2023-05-19T07:05:09.352Z,75.85
2023-05-19T07:06:08.978Z,75.92
2023-05-19T07:07:08.928Z,75.71
2023-05-19T07:08:08.918Z,75.82
2023-05-19T07:09:08.940Z,75.92
2023-05-19T07:10:08.919Z,75.07
2023-05-19T07:11:08.934Z,75.07
2023-05-19T07:12:08.880Z,74.96
2023-05-19T07:13:08.877Z,74.35
2023-05-19T07:14:08.916Z,72.21
2023-05-19T07:15:08.905Z,72.00
2023-05-19T07:16:08.870Z,72.00
2023-05-19T07:17:08.843Z,72.11
2023-05-19T07:18:08.857Z,71.80
2023-05-19T07:19:10.635Z,71.80
2023-05-19T07:20:08.794Z,71.19
2023-05-19T07:21:08.771Z,71.70
2023-05-19T07:22:08.795Z,71.26
2023-05-19T07:23:08.759Z,72.28
2023-05-19T07:24:08.762Z,72.17
2023-05-19T07:25:09.093Z,72.38
2023-05-19T07:26:08.715Z,72.45
2023-05-19T07:27:08.716Z,71.94
2023-05-19T07:28:08.720Z,70.82
2023-05-19T07:29:08.724Z,71.63
2023-05-19T07:30:08.700Z,71.02
2023-05-19T07:31:08.670Z,70.95
2023-05-19T07:32:08.697Z,71.36
2023-05-19T07:33:08.707Z,71.56
2023-05-19T07:34:08.700Z,71.97
2023-05-19T07:35:08.654Z,72.45
2023-05-19T07:36:08.624Z,72.21
2023-05-19T07:37:08.598Z,70.78
2023-05-19T07:38:08.606Z,70.89
2023-05-19T07:39:08.620Z,70.48
2023-05-19T07:40:08.574Z,70.04
2023-05-19T07:41:08.626Z,70.04
2023-05-19T07:42:08.586Z,69.02
2023-05-19T07:43:08.619Z,69.23
2023-05-19T07:44:08.553Z,69.23
2023-05-19T07:45:08.502Z,69.32
2023-05-19T07:46:08.536Z,69.73
2023-05-19T07:47:08.533Z,69.23
2023-05-19T07:48:08.563Z,68.21
2023-05-19T07:49:08.490Z,68.62
2023-05-19T07:50:08.466Z,68.62
2023-05-19T07:51:08.453Z,68.68
2023-05-19T07:52:08.755Z,68.68
2023-05-19T07:53:08.422Z,67.66
2023-05-19T07:54:08.421Z,67.66
2023-05-19T07:55:08.445Z,67.16
2023-05-19T07:56:08.395Z,66.85
2023-05-19T07:57:08.401Z,66.96
2023-05-19T07:58:11.204Z,67.13
2023-05-19T07:59:08.362Z,66.61
2023-05-19T08:00:08.355Z,66.52
2023-05-19T08:01:08.327Z,66.58
2023-05-19T08:02:08.344Z,66.79
2023-05-19T08:03:08.409Z,66.38
2023-05-19T08:04:10.289Z,66.05
2023-05-19T08:05:16.625Z,65.84
2023-05-19T08:06:15.317Z,65.84
2023-05-19T08:07:08.279Z,65.74
2023-05-19T08:08:08.236Z,64.83
2023-05-19T08:09:08.235Z,65.13
2023-05-19T08:10:08.237Z,66.15
2023-05-19T08:11:08.208Z,65.94
2023-05-19T08:12:08.220Z,66.05
2023-05-19T08:13:08.590Z,65.03
2023-05-19T08:14:08.193Z,65.61
2023-05-19T08:15:08.194Z,64.79
2023-05-19T08:16:08.151Z,65.71
2023-05-19T08:17:08.195Z,64.09
2023-05-19T08:18:08.137Z,63.78
2023-05-19T08:19:08.153Z,63.78
2023-05-19T08:20:08.187Z,64.09
2023-05-19T08:21:08.112Z,63.98
2023-05-19T08:22:08.112Z,63.85
2023-05-19T08:23:08.077Z,64.15
2023-05-19T08:24:08.129Z,64.67
2023-05-19T08:25:08.050Z,63.85
2023-05-19T08:26:08.046Z,64.06
2023-05-19T08:27:08.024Z,63.75
2023-05-19T08:28:08.022Z,63.72
2023-05-19T08:29:08.005Z,63.11
2023-05-19T08:30:08.024Z,62.94
2023-05-19T08:31:07.994Z,62.74
2023-05-19T08:32:11.615Z,63.04
2023-05-19T08:33:08.002Z,63.65
2023-05-19T08:34:07.990Z,63.55
2023-05-19T08:35:07.927Z,64.06
2023-05-19T08:36:09.664Z,63.42
2023-05-19T08:37:07.898Z,64.03
2023-05-19T08:38:07.904Z,64.23
2023-05-19T08:39:07.889Z,64.70
2023-05-19T08:40:07.947Z,64.20
2023-05-19T08:41:07.891Z,63.18
2023-05-19T08:42:07.876Z,62.88
2023-05-19T08:43:07.839Z,63.08
2023-05-19T08:44:07.843Z,63.29
2023-05-19T08:45:07.882Z,62.68
2023-05-19T08:46:07.813Z,63.08
2023-05-19T08:47:07.992Z,63.15
2023-05-19T08:48:07.826Z,63.06
2023-05-19T08:49:07.786Z,62.95
2023-05-19T08:50:07.871Z,63.46
2023-05-19T08:51:07.791Z,63.56
2023-05-19T08:52:07.754Z,63.43
2023-05-19T08:53:15.101Z,62.21
2023-05-19T08:54:08.735Z,62.31
2023-05-19T08:55:07.728Z,61.71
2023-05-19T08:56:07.719Z,62.31
2023-05-19T08:57:07.733Z,62.92
2023-05-19T08:58:07.700Z,61.80
2023-05-19T08:59:11.592Z,62.31
2023-05-19T09:00:07.641Z,62.31
2023-05-19T09:01:07.729Z,62.18
2023-05-19T09:02:07.694Z,61.78
2023-05-19T09:04:07.713Z,61.07
2023-05-19T09:05:07.650Z,60.97
2023-05-19T09:06:07.728Z,61.37
2023-05-19T09:07:07.640Z,62.18
2023-05-19T09:08:07.528Z,60.86
2023-05-19T09:09:07.613Z,61.27
2023-05-19T09:10:07.509Z,60.86
2023-05-19T09:11:07.583Z,61.37
2023-05-19T09:12:07.516Z,61.47
2023-05-19T09:13:07.499Z,61.68
2023-05-19T09:14:07.484Z,61.75
2023-05-19T09:15:07.821Z,61.95
2023-05-19T09:16:07.498Z,62.15
2023-05-19T09:17:07.613Z,61.01
2023-05-19T09:18:07.748Z,60.61
2023-05-19T09:19:07.428Z,59.97
2023-05-19T09:20:07.496Z,59.06
2023-05-19T09:21:07.598Z,59.27
2023-05-19T09:22:07.462Z,58.76
2023-05-19T09:23:07.406Z,59.27
2023-05-19T09:24:07.379Z,58.96
2023-05-19T09:25:07.649Z,58.65
2023-05-19T09:26:07.888Z,58.76
2023-05-19T09:27:07.411Z,58.65
2023-05-19T09:28:07.368Z,59.47
2023-05-19T09:29:07.335Z,59.27
2023-05-19T09:30:07.307Z,59.67
2023-05-19T09:31:07.342Z,59.27
2023-05-19T09:32:09.068Z,59.56
2023-05-19T09:33:07.336Z,59.27
2023-05-19T09:34:07.279Z,59.03
2023-05-19T09:35:07.301Z,59.23
2023-05-19T09:36:07.234Z,58.80
2023-05-19T09:37:07.220Z,58.40
2023-05-19T09:38:07.236Z,58.20
2023-05-19T09:39:07.191Z,55.77
2023-05-19T09:40:07.229Z,55.87
2023-05-19T09:41:07.233Z,56.07
2023-05-19T09:42:07.495Z,57.18
2023-05-19T09:43:07.182Z,57.59
2023-05-19T09:44:07.165Z,57.09
2023-05-19T09:45:07.134Z,56.88
2023-05-19T09:46:07.310Z,56.68
2023-05-19T09:47:07.124Z,56.88
2023-05-19T09:48:07.116Z,57.09
2023-05-19T09:49:07.117Z,57.46
2023-05-19T09:50:07.083Z,53.90
2023-05-19T09:51:07.410Z,54.00
2023-05-19T09:52:07.098Z,54.10
2023-05-19T09:53:07.060Z,54.38
2023-05-19T09:54:07.020Z,55.19
2023-05-19T09:55:06.994Z,55.06
2023-05-19T09:56:07.012Z,53.55
2023-05-19T09:57:08.348Z,52.36
2023-05-19T09:58:14.026Z,52.87
2023-05-19T09:59:13.980Z,53.38
2023-05-19T10:00:07.015Z,54.38
2023-05-19T10:01:07.045Z,54.28
2023-05-19T10:02:06.964Z,53.98
2023-05-19T10:03:07.017Z,54.28
2023-05-19T10:04:06.905Z,54.56
2023-05-19T10:05:11.935Z,54.96
2023-05-19T10:06:07.879Z,55.64
2023-05-19T10:07:07.009Z,54.81
2023-05-19T10:08:06.862Z,54.30
2023-05-19T10:09:06.848Z,55.79
2023-05-19T10:10:07.188Z,54.75
2023-05-19T10:11:06.819Z,52.84
2023-05-19T10:12:06.862Z,51.43
2023-05-19T10:13:06.808Z,52.31
2023-05-19T10:14:06.801Z,49.82
2023-05-19T10:15:06.794Z,49.62
2023-05-19T10:16:06.824Z,49.62
2023-05-19T10:17:07.258Z,50.02
2023-05-19T10:18:07.178Z,48.82
2023-05-19T10:19:06.844Z,49.02
2023-05-19T10:20:06.714Z,48.01
2023-05-19T10:21:06.720Z,48.34
2023-05-19T10:22:06.691Z,49.29
2023-05-19T10:23:06.722Z,49.49
2023-05-19T10:24:06.681Z,49.69
2023-05-19T10:25:06.693Z,48.89
2023-05-19T10:26:07.059Z,49.59
2023-05-19T10:27:06.643Z,49.99
2023-05-19T10:28:06.657Z,50.57
2023-05-19T10:29:06.660Z,48.96
2023-05-19T10:30:08.254Z,48.74
2023-05-19T10:31:06.630Z,48.66
2023-05-19T10:32:06.661Z,49.37
2023-05-19T10:33:06.616Z,49.77
2023-05-19T10:34:07.366Z,48.56
2023-05-19T10:35:06.591Z,48.36
2023-05-19T10:36:06.561Z,48.89
2023-05-19T10:37:06.701Z,48.99
2023-05-19T10:38:06.513Z,49.59
2023-05-19T10:39:06.510Z,49.37
2023-05-19T10:40:08.461Z,49.85
2023-05-19T10:41:06.471Z,50.33
2023-05-19T10:42:06.470Z,48.82
2023-05-19T10:43:06.464Z,48.19
2023-05-19T10:44:06.435Z,47.66
2023-05-19T10:45:06.454Z,47.56
2023-05-19T10:46:06.408Z,46.84
2023-05-19T10:47:06.446Z,46.44
2023-05-19T10:48:06.416Z,47.32
2023-05-19T10:49:06.500Z,48.43
2023-05-19T10:50:06.388Z,46.80
2023-05-19T10:51:08.585Z,46.11
2023-05-19T10:52:06.587Z,47.42
2023-05-19T10:53:06.362Z,47.80
2023-05-19T10:54:06.394Z,44.20
2023-05-19T10:55:08.197Z,42.80
2023-05-19T10:56:06.320Z,44.83
2023-05-19T10:57:06.297Z,44.95
2023-05-19T10:58:06.296Z,45.78
2023-05-19T10:59:06.281Z,47.28
2023-05-19T11:00:06.257Z,46.68
2023-05-19T11:01:06.259Z,45.47
2023-05-19T11:02:06.248Z,46.26
2023-05-19T11:03:06.284Z,48.44
2023-05-19T11:04:06.235Z,46.54
2023-05-19T11:05:06.215Z,47.85
2023-05-19T11:06:06.195Z,45.41
2023-05-19T11:07:06.194Z,46.11
2023-05-19T11:08:06.209Z,45.39
2023-05-19T11:09:06.218Z,45.69
2023-05-19T11:10:06.212Z,44.79
2023-05-19T11:11:06.385Z,44.08
2023-05-19T11:12:06.197Z,43.18
2023-05-19T11:13:06.480Z,42.60
2023-05-19T11:14:06.132Z,44.10
2023-05-19T11:15:06.152Z,43.80
2023-05-19T11:16:06.111Z,43.10
2023-05-19T11:17:06.212Z,44.20
2023-05-19T11:18:06.107Z,44.63
2023-05-19T11:19:06.176Z,45.63
2023-05-19T11:20:06.030Z,44.43
2023-05-19T11:21:06.080Z,45.53
2023-05-19T11:22:06.076Z,44.93
2023-05-19T11:23:06.065Z,45.10
2023-05-19T11:24:06.098Z,45.21
2023-05-19T11:25:05.976Z,45.41
2023-05-19T11:26:06.015Z,44.81
2023-05-19T11:27:05.993Z,46.09
2023-05-19T11:28:05.946Z,44.79
2023-05-19T11:29:05.963Z,44.16
2023-05-19T11:30:05.920Z,45.57
2023-05-19T11:31:05.918Z,45.47
2023-05-19T11:32:06.026Z,46.77
2023-05-19T11:33:05.950Z,45.84
2023-05-19T11:34:05.941Z,46.04
2023-05-19T11:35:05.873Z,48.43
2023-05-19T11:36:05.903Z,45.92
2023-05-19T11:37:05.855Z,44.70
2023-05-19T11:38:05.847Z,43.50
2023-05-19T11:39:05.814Z,43.12
2023-05-19T11:40:05.844Z,42.52
2023-05-19T11:41:05.847Z,42.63
2023-05-19T11:42:05.817Z,42.66
2023-05-19T11:43:05.781Z,42.97
2023-05-19T11:44:05.809Z,44.59
2023-05-19T11:45:05.779Z,42.55
2023-05-19T11:46:13.164Z,42.78
2023-05-19T11:47:05.716Z,43.78
2023-05-19T11:48:05.727Z,44.79
2023-05-19T11:49:13.070Z,43.18
2023-05-19T11:50:05.698Z,44.06
2023-05-19T11:51:05.670Z,43.06
2023-05-19T11:52:12.696Z,43.96
2023-05-19T11:53:05.649Z,43.68
2023-05-19T11:54:05.677Z,43.86
2023-05-19T11:55:05.647Z,44.64
2023-05-19T11:56:05.633Z,43.94
2023-05-19T11:57:05.605Z,44.72
2023-05-19T11:58:06.107Z,44.62
2023-05-19T11:59:05.600Z,44.60
2023-05-19T12:00:05.584Z,44.80
2023-05-19T12:01:05.577Z,43.19
2023-05-19T12:02:05.559Z,42.30
2023-05-19T12:03:05.932Z,42.30
2023-05-19T12:04:05.666Z,43.32
2023-05-19T12:05:05.670Z,43.62
2023-05-19T12:06:05.569Z,44.52
2023-05-19T12:07:05.574Z,43.52
2023-05-19T12:08:05.512Z,43.42
2023-05-19T12:09:05.537Z,44.02
2023-05-19T12:10:05.464Z,44.82
2023-05-19T12:11:05.462Z,43.82
2023-05-19T12:12:05.450Z,43.72
2023-05-19T12:13:05.458Z,43.22
2023-05-19T12:14:05.421Z,43.14
2023-05-19T12:15:05.422Z,43.64
2023-05-19T12:16:05.550Z,45.04
2023-05-19T12:17:05.776Z,43.84
2023-05-19T12:18:05.410Z,43.94
2023-05-19T12:19:05.462Z,44.32
2023-05-19T12:20:05.365Z,43.24
2023-05-19T12:21:05.331Z,44.34
2023-05-19T12:22:05.321Z,43.44
2023-05-19T12:23:05.338Z,43.44
2023-05-19T12:24:05.311Z,43.54
2023-05-19T12:25:05.317Z,44.32
2023-05-19T12:26:05.324Z,43.52
2023-05-19T12:27:05.273Z,42.91
2023-05-19T12:28:05.383Z,42.61
2023-05-19T12:29:05.291Z,43.32
2023-05-19T12:30:05.223Z,44.42
2023-05-19T12:31:05.255Z,44.32
2023-05-19T12:32:05.269Z,45.10
2023-05-19T12:33:05.531Z,45.60
2023-05-19T12:34:05.184Z,44.48
2023-05-19T12:35:05.207Z,43.77
2023-05-19T12:36:05.182Z,45.08
2023-05-19T12:37:05.522Z,44.96
2023-05-19T12:38:05.336Z,42.76
2023-05-19T12:39:05.134Z,44.38
2023-05-19T12:40:05.212Z,43.27
2023-05-19T12:41:05.115Z,41.38
2023-05-19T12:42:05.212Z,40.99
2023-05-19T12:43:05.090Z,42.77
2023-05-19T12:44:05.391Z,42.07
2023-05-19T12:45:05.082Z,43.38
2023-05-19T12:46:05.064Z,40.59
2023-05-19T12:47:05.055Z,42.19
2023-05-19T12:48:05.088Z,41.09
2023-05-19T12:49:05.034Z,43.08
2023-05-19T12:50:05.146Z,43.96
2023-05-19T12:51:04.994Z,43.24
2023-05-19T12:52:09.250Z,43.13
2023-05-19T12:53:05.994Z,40.81